Time;durP1;ratioP1;P1;durP2;ratioP2;P2;SDS_P1;SDS_P2;PMS_P1;PMS_P2;Temp;Humidity;BMP_temperature;BMP_pressure;BME280_temperature;BME280_humidity;BME280_pressure;Samples;Min_cycle;Max_cycle;Signal;HPM_P1;HPM_P2
2020/12/22 00:02:11;;;;;;;31.42;12.43;;;;;;;4.73;75.66;100207.25;5067557;28;20041;-77
2020/12/22 00:04:36;;;;;;;28.80;12.15;;;;;;;4.75;75.53;100199.13;5067338;28;20035;-75
2020/12/22 00:07:02;;;;;;;22.52;10.95;;;;;;;4.72;75.55;100195.03;5065545;28;20150;-75
2020/12/22 00:09:28;;;;;;;29.88;12.57;;;;;;;4.78;75.48;100207.44;5065405;28;20063;-78
2020/12/22 00:11:53;;;;;;;23.58;12.45;;;;;;;4.80;75.29;100210.72;5066468;28;21437;-77
2020/12/22 00:14:19;;;;;;;21.98;12.75;;;;;;;4.78;75.27;100209.28;5065459;28;20047;-79
2020/12/22 00:16:44;;;;;;;25.60;12.60;;;;;;;4.80;75.08;100217.84;5068809;28;20419;-79
2020/12/22 00:19:10;;;;;;;21.88;12.30;;;;;;;4.85;75.28;100218.03;5071474;28;20226;-81
2020/12/22 00:21:36;;;;;;;22.02;14.00;;;;;;;4.81;75.28;100219.50;5070352;28;20540;-78
2020/12/22 00:24:02;;;;;;;26.27;15.13;;;;;;;4.85;75.21;100225.19;5070705;28;20028;-76
2020/12/22 00:26:28;;;;;;;32.65;16.38;;;;;;;4.84;75.26;100218.25;5070425;28;20576;-76
2020/12/22 00:28:53;;;;;;;31.35;12.48;;;;;;;4.85;75.32;100211.94;5069975;28;20036;-76
2020/12/22 00:31:19;;;;;;;25.83;12.70;;;;;;;4.88;75.16;100216.81;5070438;28;20036;-77
2020/12/22 00:33:44;;;;;;;25.63;11.80;;;;;;;4.86;74.79;100216.19;5069826;28;20484;-75
2020/12/22 00:36:10;;;;;;;25.85;13.02;;;;;;;4.85;75.69;100211.94;5070167;28;20037;-75
2020/12/22 00:38:35;;;;;;;25.27;12.13;;;;;;;4.85;75.24;100206.63;5070037;28;20032;-77
2020/12/22 00:41:01;;;;;;;26.65;12.30;;;;;;;4.85;75.37;100210.09;5070788;28;20028;-78
2020/12/22 00:43:27;;;;;;;25.02;12.15;;;;;;;4.84;75.47;100200.50;5070066;28;20037;-77
2020/12/22 00:45:52;;;;;;;21.23;11.40;;;;;;;4.84;75.49;100199.72;5069846;28;20078;-76
2020/12/22 00:48:18;;;;;;;23.38;11.43;;;;;;;4.86;75.48;100217.03;5069798;28;20068;-76
2020/12/22 00:50:43;;;;;;;23.13;12.23;;;;;;;4.85;75.66;100206.63;5070137;28;20086;-75
2020/12/22 00:53:08;;;;;;;29.85;12.35;;;;;;;4.87;75.57;100208.06;5071104;28;20064;-75
2020/12/22 00:55:34;;;;;;;29.05;10.93;;;;;;;4.85;75.58;100204.78;5070742;28;20028;-76
2020/12/22 00:57:59;;;;;;;25.23;11.90;;;;;;;4.86;75.33;100195.81;5075492;28;20131;-76
2020/12/22 01:00:24;;;;;;;26.40;13.15;;;;;;;4.88;75.51;100199.09;5069862;28;20020;-77
2020/12/22 01:02:50;;;;;;;24.55;12.48;;;;;;;4.85;75.03;100194.19;5085078;28;20060;-80
2020/12/22 01:05:15;;;;;;;23.50;12.00;;;;;;;4.83;75.00;100201.53;5069461;28;20116;-77
2020/12/22 01:07:40;;;;;;;27.30;12.25;;;;;;;4.79;75.28;100195.03;5085404;28;20553;-75
2020/12/22 01:10:06;;;;;;;30.00;12.30;;;;;;;4.79;75.67;100209.06;5069835;28;20119;-76
2020/12/22 01:12:31;;;;;;;31.02;11.80;;;;;;;4.78;75.57;100198.69;5070275;28;20032;-76
2020/12/22 01:14:57;;;;;;;23.77;11.18;;;;;;;4.80;75.37;100199.31;5086707;28;20067;-76
2020/12/22 01:17:22;;;;;;;24.75;10.50;;;;;;;4.82;75.64;100197.25;5069603;28;20112;-83
2020/12/22 01:19:48;;;;;;;23.63;12.02;;;;;;;4.82;76.01;100205.19;5069548;28;20494;-83
2020/12/22 01:22:13;;;;;;;24.20;10.02;;;;;;;4.77;75.50;100184.63;5070089;28;20524;-79
2020/12/22 01:24:38;;;;;;;27.85;11.73;;;;;;;4.80;75.66;100188.72;5086254;28;20129;-76
2020/12/22 01:27:04;;;;;;;24.27;11.52;;;;;;;4.82;76.15;100199.88;5074488;28;20475;-76
2020/12/22 01:29:29;;;;;;;26.15;12.02;;;;;;;4.81;76.14;100200.94;5069249;28;20029;-76
2020/12/22 01:31:55;;;;;;;26.15;11.02;;;;;;;4.82;76.10;100194.59;5069694;28;20068;-78
2020/12/22 01:34:20;;;;;;;25.65;11.48;;;;;;;4.82;75.92;100184.00;5069471;28;20404;-77
2020/12/22 01:36:46;;;;;;;24.33;11.13;;;;;;;4.82;76.12;100194.59;5068731;28;20032;-75
2020/12/22 01:39:11;;;;;;;26.27;13.18;;;;;;;4.82;75.88;100184.00;5069344;28;20033;-75
2020/12/22 01:41:37;;;;;;;21.05;11.55;;;;;;;4.75;75.93;100170.78;5069007;28;20044;-75
2020/12/22 01:44:14;;;;;;;28.30;12.15;;;;;;;4.84;75.93;100181.94;5069263;28;20033;-75
2020/12/22 01:46:48;;;;;;;28.92;11.98;;;;;;;4.85;75.66;100174.84;5069309;28;20078;-75
2020/12/22 01:49:25;;;;;;;25.10;12.00;;;;;;;4.66;75.74;100142.88;5069965;28;20028;-74
2020/12/22 01:51:53;;;;;;;24.33;11.73;;;;;;;4.79;75.84;100160.56;5070414;28;20024;-74
2020/12/22 01:54:18;;;;;;;26.25;11.88;;;;;;;4.81;75.71;100161.97;5069362;28;20036;-75
2020/12/22 01:56:45;;;;;;;28.92;12.63;;;;;;;4.80;75.72;100159.56;5068779;28;20549;-76
2020/12/22 01:59:11;;;;;;;25.10;11.77;;;;;;;4.82;75.96;100168.09;5069340;28;20028;-75
2020/12/22 02:01:37;;;;;;;25.25;11.60;;;;;;;4.83;75.82;100161.75;5068817;28;20036;-76
2020/12/22 02:04:05;;;;;;;21.25;11.32;;;;;;;4.79;75.64;100158.72;5068964;28;20043;-75
2020/12/22 02:06:31;;;;;;;28.17;11.98;;;;;;;4.81;75.32;100154.03;5069416;28;20025;-75
2020/12/22 02:08:57;;;;;;;29.25;13.15;;;;;;;4.83;75.42;100163.63;5069063;28;20510;-80
2020/12/22 02:11:27;;;;;;;27.10;11.13;;;;;;;4.86;75.86;100171.13;5069146;28;20033;-81
2020/12/22 02:13:54;;;;;;;22.05;11.82;;;;;;;4.82;75.57;100168.09;5068709;28;20032;-80
2020/12/22 02:16:19;;;;;;;22.63;10.70;;;;;;;4.85;75.67;100166.88;5068732;28;20029;-80
2020/12/22 02:18:46;;;;;;;23.85;11.20;;;;;;;4.77;75.41;100160.78;5068947;28;20036;-82
2020/12/22 02:21:12;;;;;;;25.20;12.00;;;;;;;4.68;75.67;100158.59;5069267;28;20725;-83
2020/12/22 02:23:37;;;;;;;30.77;13.02;;;;;;;4.68;76.19;100161.22;5070026;28;20075;-77
2020/12/22 02:26:03;;;;;;;29.10;11.48;;;;;;;4.71;75.93;100166.94;5073415;28;20032;-85
2020/12/22 02:28:28;;;;;;;31.70;13.60;;;;;;;4.64;76.03;100164.28;5073324;28;20024;-78
2020/12/22 02:30:54;;;;;;;24.27;11.85;;;;;;;4.66;76.36;100169.38;5072078;28;20028;-81
2020/12/22 02:33:19;;;;;;;25.45;10.57;;;;;;;4.63;76.63;100169.81;5072263;28;20049;-79
2020/12/22 02:35:44;;;;;;;20.55;12.15;;;;;;;4.61;76.46;100167.38;5089748;28;20446;-76
2020/12/22 02:38:10;;;;;;;20.52;9.65;;;;;;;4.63;76.01;100167.16;5090002;28;20553;-80
2020/12/22 02:40:35;;;;;;;17.50;9.05;;;;;;;4.61;75.66;100170.03;5072496;28;20031;-78
2020/12/22 02:43:10;;;;;;;16.95;9.25;;;;;;;4.60;75.68;100165.75;5074360;28;20025;-77
2020/12/22 02:45:37;;;;;;;18.67;8.80;;;;;;;4.54;75.82;100157.78;5072397;28;20029;-77
2020/12/22 02:48:02;;;;;;;20.88;10.60;;;;;;;4.58;75.61;100173.06;5071909;28;20085;-77
2020/12/22 02:50:28;;;;;;;19.58;8.90;;;;;;;4.57;76.08;100170.63;5064781;28;20454;-81
2020/12/22 02:52:53;;;;;;;24.15;11.50;;;;;;;4.59;75.92;100174.72;5071999;28;20028;-78
2020/12/22 02:55:18;;;;;;;22.63;9.60;;;;;;;4.59;76.12;100185.31;5089107;28;20028;-78
2020/12/22 02:57:44;;;;;;;19.65;9.65;;;;;;;4.63;75.77;100180.41;5072353;28;20060;-75
2020/12/22 03:00:12;;;;;;;18.95;9.18;;;;;;;4.61;76.30;100172.66;5073402;28;20510;-76
2020/12/22 03:02:37;;;;;;;21.60;10.63;;;;;;;4.65;76.21;100167.75;5072246;28;20037;-74
2020/12/22 03:05:03;;;;;;;17.80;9.63;;;;;;;4.64;75.99;100166.13;5072432;28;20039;-75
2020/12/22 03:07:28;;;;;;;23.65;9.57;;;;;;;4.66;75.88;100169.38;5072658;28;20463;-83
2020/12/22 03:09:54;;;;;;;23.75;10.32;;;;;;;4.65;76.12;100173.03;5071781;28;20083;-75
2020/12/22 03:12:19;;;;;;;20.27;9.02;;;;;;;4.65;75.80;100168.56;5071927;28;20075;-75
2020/12/22 03:14:44;;;;;;;19.45;9.23;;;;;;;4.66;76.09;100166.72;5071925;28;20025;-75
2020/12/22 03:17:10;;;;;;;18.42;9.38;;;;;;;4.70;75.68;100172.41;5072050;28;20411;-75
2020/12/22 03:19:37;;;;;;;17.52;8.88;;;;;;;4.72;75.91;100176.47;5073550;28;20043;-77
2020/12/22 03:22:04;;;;;;;23.40;9.60;;;;;;;4.71;75.41;100174.88;5071780;28;20595;-76
2020/12/22 03:24:30;;;;;;;22.83;9.60;;;;;;;4.70;75.19;100183.00;5072018;28;20127;-74
2020/12/22 03:26:55;;;;;;;21.38;9.30;;;;;;;4.63;75.83;100173.25;5071635;28;20124;-75
2020/12/22 03:29:20;;;;;;;24.10;9.35;;;;;;;4.70;75.83;100178.53;5072816;28;20052;-74
2020/12/22 03:31:46;;;;;;;17.30;7.90;;;;;;;4.70;76.06;100188.31;5070814;28;20403;-74
2020/12/22 03:34:11;;;;;;;18.02;9.07;;;;;;;4.69;75.89;100190.16;5071756;28;20040;-75
2020/12/22 03:36:36;;;;;;;21.92;9.30;;;;;;;4.65;75.96;100188.94;5070303;28;20118;-83
2020/12/22 03:39:02;;;;;;;15.55;8.98;;;;;;;4.63;76.55;100186.50;5071449;28;20051;-83
2020/12/22 03:41:27;;;;;;;22.13;9.93;;;;;;;4.61;76.54;100188.56;5071851;28;20032;-83
2020/12/22 03:43:54;;;;;;;18.85;8.95;;;;;;;4.57;76.81;100181.25;5071662;28;20177;-75
2020/12/22 03:46:19;;;;;;;18.65;9.93;;;;;;;4.60;76.61;100194.88;5071365;28;20130;-76
2020/12/22 03:48:45;;;;;;;25.02;11.65;;;;;;;4.62;76.73;100192.81;5070984;28;20415;-75
2020/12/22 03:51:11;;;;;;;24.73;12.98;;;;;;;4.63;77.02;100191.81;5078996;28;21618;-74
2020/12/22 03:53:36;;;;;;;30.40;13.77;;;;;;;4.65;76.72;100194.22;5071785;28;20518;-74
2020/12/22 03:56:02;;;;;;;29.80;12.98;;;;;;;4.63;76.86;100197.09;5070762;28;20115;-76
2020/12/22 03:58:27;;;;;;;23.02;11.10;;;;;;;4.64;76.78;100201.38;5071017;28;20078;-77
2020/12/22 04:00:52;;;;;;;21.00;9.20;;;;;;;4.66;76.84;100203.81;5070730;28;20419;-77
2020/12/22 04:03:18;;;;;;;26.83;10.95;;;;;;;4.63;77.29;100201.59;5071048;28;20166;-75
2020/12/22 04:05:43;;;;;;;18.55;9.48;;;;;;;4.67;77.05;100202.78;5071467;28;20025;-75
2020/12/22 04:08:09;;;;;;;12.40;7.18;;;;;;;4.63;77.46;100197.09;5070472;28;20115;-76
2020/12/22 04:10:34;;;;;;;14.18;7.68;;;;;;;4.67;77.51;100200.16;5071410;28;20028;-77
2020/12/22 04:12:59;;;;;;;14.77;8.23;;;;;;;4.63;77.34;100197.09;5071130;28;20483;-73
2020/12/22 04:15:25;;;;;;;16.30;7.40;;;;;;;4.66;77.26;100198.50;5070907;28;20033;-73
2020/12/22 04:17:51;;;;;;;16.77;7.40;;;;;;;4.64;77.40;100193.44;5069430;28;20028;-75
2020/12/22 04:20:16;;;;;;;15.25;6.90;;;;;;;4.70;77.72;100206.88;5072485;28;20032;-74
2020/12/22 04:22:41;;;;;;;13.57;7.85;;;;;;;4.68;77.43;100204.44;5072074;28;20044;-75
2020/12/22 04:25:07;;;;;;;19.35;8.15;;;;;;;4.66;77.22;100190.56;5070324;28;20498;-74
2020/12/22 04:27:32;;;;;;;14.80;7.45;;;;;;;4.69;77.47;100198.13;5071148;28;20070;-78
2020/12/22 04:29:58;;;;;;;12.85;7.00;;;;;;;4.67;77.27;100188.75;5070560;28;20229;-75
2020/12/22 04:32:23;;;;;;;13.27;7.55;;;;;;;4.69;77.68;100191.97;5070368;28;20040;-78
2020/12/22 04:34:50;;;;;;;16.85;8.05;;;;;;;4.75;77.57;100193.81;5069978;28;20036;-74
2020/12/22 04:37:16;;;;;;;17.63;8.30;;;;;;;4.73;77.45;100185.25;5069601;28;20024;-75
2020/12/22 04:39:41;;;;;;;17.50;9.23;;;;;;;4.74;77.35;100186.91;5070706;28;20074;-73
2020/12/22 04:42:08;;;;;;;19.45;8.43;;;;;;;4.73;77.05;100186.06;5070838;28;20028;-74
2020/12/22 04:44:33;;;;;;;16.13;8.05;;;;;;;4.69;77.49;100181.38;5070226;28;20165;-74
2020/12/22 04:46:59;;;;;;;17.75;7.55;;;;;;;4.70;77.17;100190.97;5071185;28;20028;-74
2020/12/22 04:49:28;;;;;;;15.80;8.00;;;;;;;4.71;77.17;100188.13;5071476;28;20060;-74
2020/12/22 04:51:56;;;;;;;16.95;9.18;;;;;;;4.69;77.30;100174.25;5069661;28;20056;-74
2020/12/22 04:54:22;;;;;;;16.80;7.88;;;;;;;4.76;77.68;100188.31;5070983;28;20021;-74
2020/12/22 04:56:47;;;;;;;16.60;7.90;;;;;;;4.76;77.36;100188.31;5069498;28;20033;-74
2020/12/22 04:59:16;;;;;;;18.60;8.48;;;;;;;4.77;77.13;100189.13;5069025;28;20473;-76
2020/12/22 05:01:42;;;;;;;17.83;8.98;;;;;;;4.80;77.51;100191.34;5069737;28;20020;-76
2020/12/22 05:04:12;;;;;;;16.80;8.65;;;;;;;4.79;77.64;100193.19;5068988;28;20041;-76
2020/12/22 05:06:41;;;;;;;16.25;8.20;;;;;;;4.77;77.53;100187.28;5070193;28;20147;-75
2020/12/22 05:09:07;;;;;;;17.08;8.10;;;;;;;4.73;77.56;100180.75;5069441;28;20028;-76
2020/12/22 05:11:36;;;;;;;19.65;9.15;;;;;;;4.80;77.60;100191.34;5069995;28;20027;-75
2020/12/22 05:14:04;;;;;;;16.88;8.88;;;;;;;4.76;77.65;100190.97;5064557;28;20040;-76
2020/12/22 05:16:29;;;;;;;19.73;8.50;;;;;;;4.78;77.85;100193.41;5069154;28;20032;-76
2020/12/22 05:18:55;;;;;;;22.30;9.43;;;;;;;4.83;77.97;100192.78;5070831;28;20033;-77
2020/12/22 05:21:21;;;;;;;22.08;11.18;;;;;;;4.80;77.83;100194.00;5069775;28;20032;-78
2020/12/22 05:23:51;;;;;;;26.70;13.15;;;;;;;4.80;77.64;100191.34;5068469;28;20170;-81
2020/12/22 05:26:19;;;;;;;28.10;14.35;;;;;;;4.84;77.62;100197.84;5067034;28;20033;-90
2020/12/22 05:28:45;;;;;;;30.25;13.98;;;;;;;4.81;77.60;100199.09;5071656;28;20123;-88
2020/12/22 05:31:14;;;;;;;27.52;14.70;;;;;;;4.78;77.68;100190.75;5068114;28;20116;-75
2020/12/22 05:33:46;;;;;;;20.23;12.93;;;;;;;4.79;77.74;100187.88;5069344;28;20142;-75
2020/12/22 05:36:11;;;;;;;23.77;12.88;;;;;;;4.83;77.85;100198.06;5069967;28;20067;-74
2020/12/22 05:38:38;;;;;;;28.38;14.25;;;;;;;4.82;77.54;100189.28;5070518;28;20052;-74
2020/12/22 05:41:07;;;;;;;20.70;12.10;;;;;;;4.71;77.59;100192.59;5069500;28;20585;-74
2020/12/22 05:43:45;;;;;;;27.58;13.18;;;;;;;4.81;77.62;100199.09;5068233;28;20070;-74
2020/12/22 05:46:10;;;;;;;29.73;13.70;;;;;;;4.83;77.57;100200.72;5069206;28;20036;-76
2020/12/22 05:48:36;;;;;;;30.50;16.17;;;;;;;4.83;77.49;100203.38;5069503;28;20085;-77
2020/12/22 05:51:06;;;;;;;29.35;12.38;;;;;;;4.78;78.20;100191.53;5052409;28;20033;-75
2020/12/22 05:53:32;;;;;;;25.65;12.40;;;;;;;4.77;77.93;100191.75;5069604;28;20390;-75
2020/12/22 05:56:14;;;;;;;26.95;11.18;;;;;;;4.73;78.02;100204.63;5068888;28;20024;-77
2020/12/22 05:58:39;;;;;;;24.17;11.98;;;;;;;4.72;78.20;100202.97;5068462;28;20033;-77
2020/12/22 06:01:08;;;;;;;23.58;12.75;;;;;;;4.69;77.91;100203.41;5069127;28;20036;-77
2020/12/22 06:03:35;;;;;;;29.95;12.80;;;;;;;4.67;77.91;100202.78;5069296;28;20043;-77
2020/12/22 06:06:02;;;;;;;25.38;12.13;;;;;;;4.59;78.26;100190.59;5069263;28;20411;-76
2020/12/22 06:08:28;;;;;;;25.88;11.77;;;;;;;4.67;78.45;100207.28;5069304;28;20557;-77
2020/12/22 06:10:54;;;;;;;27.08;11.75;;;;;;;4.64;78.49;100206.69;5068798;28;20028;-77
2020/12/22 06:13:21;;;;;;;25.10;11.30;;;;;;;4.67;78.20;100205.44;5069133;28;20038;-77
2020/12/22 06:15:46;;;;;;;23.90;12.23;;;;;;;4.69;78.52;100205.22;5068165;28;20032;-75
2020/12/22 06:18:12;;;;;;;30.90;13.63;;;;;;;4.71;79.06;100206.69;5068598;28;20038;-75
2020/12/22 06:20:38;;;;;;;21.27;11.98;;;;;;;4.70;78.78;100199.75;5069145;28;20462;-75
2020/12/22 06:23:05;;;;;;;26.52;12.60;;;;;;;4.76;78.55;100214.81;5069025;28;20032;-77
2020/12/22 06:25:31;;;;;;;28.00;12.02;;;;;;;4.76;78.31;100200.72;5069197;28;20503;-76
2020/12/22 06:27:57;;;;;;;27.10;12.30;;;;;;;4.84;78.12;100213.75;5069090;28;20028;-75
2020/12/22 06:30:38;;;;;;;23.10;11.38;;;;;;;4.70;78.35;100183.84;5069244;28;20029;-76
2020/12/22 06:33:21;;;;;;;36.15;13.48;;;;;;;4.85;78.51;100210.09;5067452;28;20495;-75
2020/12/22 06:36:01;;;;;;;31.40;13.18;;;;;;;4.86;78.46;100206.41;5068779;28;20081;-75
2020/12/22 06:38:51;;;;;;;38.50;13.20;;;;;;;4.89;78.28;100208.63;5069062;28;20472;-75
2020/12/22 06:41:35;;;;;;;30.02;12.02;;;;;;;4.93;78.31;100217.81;5069221;28;20059;-75
2020/12/22 06:44:12;;;;;;;37.25;13.82;;;;;;;4.93;78.74;100211.69;5068164;28;20029;-76
2020/12/22 06:46:40;;;;;;;37.95;13.77;;;;;;;4.92;78.54;100205.59;5069138;28;20039;-77
2020/12/22 06:49:06;;;;;;;27.73;11.65;;;;;;;4.94;78.41;100210.66;5068466;28;20041;-76
2020/12/22 06:51:34;;;;;;;35.47;11.88;;;;;;;4.97;78.36;100204.97;5068346;28;20037;-75
2020/12/22 06:54:24;;;;;;;25.10;10.23;;;;;;;4.99;78.63;100210.03;5068615;28;20058;-77
2020/12/22 06:56:50;;;;;;;21.08;10.05;;;;;;;4.99;78.32;100218.78;5068140;28;20036;-76
2020/12/22 06:59:37;;;;;;;25.20;10.82;;;;;;;5.05;78.58;100214.50;5068948;28;20395;-77
2020/12/22 07:02:03;;;;;;;24.40;11.20;;;;;;;5.02;78.49;100214.94;5070205;28;20059;-75
2020/12/22 07:04:39;;;;;;;21.63;10.32;;;;;;;5.04;78.04;100219.00;5068976;28;20052;-79
2020/12/22 07:07:04;;;;;;;28.55;9.82;;;;;;;5.04;78.28;100211.06;5082039;28;20138;-76
2020/12/22 07:09:34;;;;;;;21.67;10.05;;;;;;;5.07;78.35;100215.13;5089249;28;20046;-78
2020/12/22 07:12:09;;;;;;;25.08;11.27;;;;;;;5.09;78.30;100213.88;5092053;28;20027;-77
2020/12/22 07:14:39;;;;;;;33.25;14.95;;;;;;;5.11;78.27;100214.50;5092375;28;20043;-73
2020/12/22 07:17:04;;;;;;;29.65;14.40;;;;;;;5.13;78.22;100217.72;5092575;28;20070;-80
2020/12/22 07:19:35;;;;;;;28.30;13.60;;;;;;;5.14;78.12;100223.84;5089084;28;20376;-77
2020/12/22 07:22:03;;;;;;;28.40;13.52;;;;;;;5.17;78.10;100222.63;5091001;28;20024;-77
2020/12/22 07:24:33;;;;;;;25.10;12.43;;;;;;;5.22;78.29;100228.09;5092412;28;20027;-77
2020/12/22 07:27:00;;;;;;;26.02;11.25;;;;;;;5.26;78.05;100227.47;5091967;28;20039;-76
2020/12/22 07:29:25;;;;;;;29.77;13.30;;;;;;;5.26;77.90;100222.16;5092539;28;20040;-77
2020/12/22 07:31:51;;;;;;;30.45;13.20;;;;;;;5.35;77.96;100232.53;5090376;28;20113;-76
2020/12/22 07:34:17;;;;;;;32.42;12.10;;;;;;;5.32;78.15;100225.78;5068559;28;20589;-80
2020/12/22 07:36:43;;;;;;;25.50;12.20;;;;;;;5.33;77.76;100223.97;5052094;28;20028;-74
2020/12/22 07:39:21;;;;;;;28.20;11.48;;;;;;;5.36;77.69;100213.75;5073731;28;20086;-74
2020/12/22 07:41:47;;;;;;;29.75;11.35;;;;;;;5.38;77.60;100227.63;5052027;28;20387;-74
2020/12/22 07:44:17;;;;;;;21.02;10.63;;;;;;;5.43;77.90;100221.66;5060373;28;20051;-75
2020/12/22 07:46:43;;;;;;;32.03;12.65;;;;;;;5.39;77.17;100210.66;5070864;28;20040;-74
2020/12/22 07:49:11;;;;;;;28.33;11.48;;;;;;;5.45;77.11;100214.31;5058767;28;20024;-74
2020/12/22 07:51:40;;;;;;;34.85;13.05;;;;;;;5.40;77.25;100206.19;5065252;28;20491;-74
2020/12/22 07:54:06;;;;;;;26.58;11.02;;;;;;;5.51;77.29;100215.31;5064828;28;20036;-74
2020/12/22 07:56:40;;;;;;;33.78;10.43;;;;;;;5.51;76.86;100217.97;5069060;28;20519;-74
2020/12/22 07:59:11;;;;;;;32.63;13.77;;;;;;;5.51;76.94;100212.66;5064731;28;20091;-75
2020/12/22 08:01:48;;;;;;;33.97;16.13;;;;;;;5.46;77.10;100215.94;5068637;28;20519;-74
2020/12/22 08:04:31;;;;;;;29.15;14.23;;;;;;;5.50;77.21;100222.44;5068437;28;20719;-74
2020/12/22 08:07:08;;;;;;;30.67;15.15;;;;;;;5.51;77.14;100223.25;5068283;28;20453;-74
2020/12/22 08:09:38;;;;;;;44.35;18.63;;;;;;;5.53;77.04;100222.03;5064954;28;20044;-75
2020/12/22 08:12:05;;;;;;;44.35;17.60;;;;;;;5.50;76.80;100211.03;5068556;28;20387;-73
2020/12/22 08:14:32;;;;;;;46.30;17.05;;;;;;;5.59;76.71;100215.84;5072158;28;20457;-75
2020/12/22 08:17:01;;;;;;;52.08;21.08;;;;;;;5.61;76.70;100205.03;5049753;28;20029;-74
2020/12/22 08:19:30;;;;;;;51.50;21.25;;;;;;;5.63;76.54;100202.97;5061600;28;20054;-74
2020/12/22 08:21:56;;;;;;;;;;;;;;;5.74;75.94;100212.09;5072731;28;20028;-78
2020/12/22 08:24:22;;;;;;;44.00;17.27;;;;;;;5.74;76.39;100212.09;5082731;28;19916;-74
2020/12/22 08:26:51;;;;;;;46.05;18.90;;;;;;;5.80;76.89;100219.19;5069347;28;20071;-74
2020/12/22 08:29:19;;;;;;;51.78;16.88;;;;;;;5.82;76.12;100203.03;5075975;28;20410;-74
2020/12/22 08:31:46;;;;;;;46.30;16.35;;;;;;;5.87;75.63;100197.88;5068463;28;20507;-75
2020/12/22 08:34:15;;;;;;;52.78;18.17;;;;;;;5.88;75.69;100195.03;5066754;28;20703;-73
2020/12/22 08:36:40;;;;;;;;;;;;;;;5.93;75.85;100194.38;5060139;28;20020;-74
2020/12/22 08:39:17;;;;;;;42.47;14.60;;;;;;;5.96;75.25;100185.97;5068386;28;20019;-74
2020/12/22 08:41:45;;;;;;;41.95;14.60;;;;;;;5.98;75.33;100181.28;5069535;28;20033;-74
2020/12/22 08:44:11;;;;;;;48.40;15.35;;;;;;;5.98;75.81;100175.97;5070374;28;20557;-82
2020/12/22 08:46:38;;;;;;;43.95;16.63;;;;;;;6.04;75.61;100172.47;5083443;28;20028;-84
2020/12/22 08:49:12;;;;;;;63.95;19.88;;;;;;;6.13;75.06;100173.00;5068365;28;20025;-86
2020/12/22 08:51:38;;;;;;;53.95;17.90;;;;;;;6.19;75.10;100180.09;5071069;28;20036;-83
2020/12/22 08:54:04;;;;;;;49.95;18.35;;;;;;;6.22;74.67;100176.19;5063251;28;20087;-81
2020/12/22 08:56:30;;;;;;;50.33;16.98;;;;;;;6.26;74.10;100174.69;5049044;28;20083;-80
2020/12/22 08:59:04;;;;;;;40.55;15.63;;;;;;;6.31;73.58;100168.72;5062275;28;20438;-81
2020/12/22 09:01:38;;;;;;;52.03;16.02;;;;;;;6.31;73.17;100166.91;5077417;28;20482;-82
2020/12/22 09:04:04;;;;;;;39.00;16.08;;;;;;;6.34;73.17;100158.47;5078358;28;20062;-81
2020/12/22 09:06:43;;;;;;;54.25;17.42;;;;;;;6.40;72.91;100157.59;5087612;28;20024;-73
2020/12/22 09:09:23;;;;;;;47.20;17.45;;;;;;;6.44;72.91;100154.50;5089945;28;20063;-74
2020/12/22 09:11:49;;;;;;;49.22;15.27;;;;;;;6.45;72.72;100148.97;5087274;28;20111;-75
2020/12/22 09:14:17;;;;;;;47.40;13.95;;;;;;;6.47;72.08;100146.91;5073622;28;20028;-73
2020/12/22 09:16:56;;;;;;;47.65;15.55;;;;;;;6.52;72.32;100146.25;5071021;28;20024;-76
2020/12/22 09:19:45;;;;;;;42.13;13.57;;;;;;;6.57;71.49;100141.88;5069318;28;20025;-72
2020/12/22 09:22:11;;;;;;;37.95;13.55;;;;;;;6.56;71.49;100128.81;5072490;28;20040;-74
2020/12/22 09:24:37;;;;;;;37.42;14.20;;;;;;;6.59;71.45;100132.88;5079131;28;20029;-72
2020/12/22 09:27:09;;;;;;;31.65;14.57;;;;;;;6.60;72.19;100124.66;5068204;28;20080;-74
2020/12/22 09:29:39;;;;;;;46.78;13.20;;;;;;;6.63;71.85;100116.25;5077001;28;20035;-75
2020/12/22 09:32:07;;;;;;;41.45;14.38;;;;;;;6.62;72.01;100106.66;5069011;28;20032;-76
2020/12/22 09:34:34;;;;;;;27.17;12.02;;;;;;;6.67;71.32;100114.78;5075224;28;20059;-76
2020/12/22 09:37:03;;;;;;;23.23;11.60;;;;;;;6.63;70.76;100108.28;5088242;28;20105;-76
2020/12/22 09:39:29;;;;;;;29.52;11.75;;;;;;;6.67;71.33;100104.13;5088165;28;20051;-75
2020/12/22 09:41:55;;;;;;;39.05;12.52;;;;;;;6.74;71.29;100106.72;5089812;28;20070;-76
2020/12/22 09:44:21;;;;;;;37.03;12.38;;;;;;;6.73;71.23;100097.91;5088100;28;20034;-76
2020/12/22 09:46:51;;;;;;;29.23;11.23;;;;;;;6.76;70.78;100101.97;5088622;28;20031;-75
2020/12/22 09:49:18;;;;;;;30.67;13.45;;;;;;;6.69;70.86;100082.66;5088408;28;20476;-74
2020/12/22 09:51:43;;;;;;;28.98;10.88;;;;;;;6.85;70.63;100097.19;5089027;28;20035;-75
2020/12/22 09:54:09;;;;;;;25.27;9.57;;;;;;;6.86;69.81;100096.94;5088874;28;20020;-75
2020/12/22 09:56:34;;;;;;;22.60;9.75;;;;;;;6.88;69.63;100094.88;5074209;28;20048;-75
2020/12/22 09:59:00;;;;;;;26.05;8.52;;;;;;;6.86;68.97;100080.16;5067805;28;20020;-75
2020/12/22 10:01:26;;;;;;;23.17;10.00;;;;;;;6.89;68.90;100091.16;5068801;28;20033;-75
2020/12/22 10:03:52;;;;;;;24.08;9.82;;;;;;;6.88;69.10;100084.25;5069217;28;20024;-75
2020/12/22 10:06:19;;;;;;;24.45;10.80;;;;;;;6.88;68.82;100086.06;5068278;28;20114;-75
2020/12/22 10:08:46;;;;;;;24.25;9.10;;;;;;;6.92;69.17;100089.09;5068130;28;20111;-75
2020/12/22 10:11:11;;;;;;;31.83;10.60;;;;;;;6.95;69.63;100083.34;5072299;28;20054;-75
2020/12/22 10:13:37;;;;;;;25.55;10.82;;;;;;;6.93;69.27;100075.56;5069044;28;20434;-82
2020/12/22 10:16:14;;;;;;;27.77;12.18;;;;;;;6.92;69.59;100070.47;5069934;28;20104;-75
2020/12/22 10:18:40;;;;;;;31.83;12.38;;;;;;;6.94;69.20;100063.09;5080615;28;20024;-75
2020/12/22 10:21:07;;;;;;;28.50;11.48;;;;;;;7.10;68.93;100081.06;5085582;28;20106;-75
2020/12/22 10:23:33;;;;;;;29.02;14.15;;;;;;;7.13;69.15;100071.81;5068168;28;20033;-75
2020/12/22 10:26:01;;;;;;;32.63;14.18;;;;;;;7.15;69.43;100061.75;5068576;28;20043;-76
2020/12/22 10:28:27;;;;;;;31.83;11.32;;;;;;;7.18;67.95;100061.31;5074861;28;20189;-76
2020/12/22 10:30:52;;;;;;;30.30;11.32;;;;;;;7.22;68.31;100076.56;5078045;28;20531;-76
2020/12/22 10:33:18;;;;;;;23.65;10.43;;;;;;;7.20;68.49;100072.53;5069963;28;20044;-81
2020/12/22 10:35:44;;;;;;;29.33;11.63;;;;;;;7.25;68.56;100064.69;5067303;28;20575;-83
2020/12/22 10:38:10;;;;;;;23.52;11.05;;;;;;;7.25;67.41;100063.84;5065554;28;20036;-77
2020/12/22 10:40:35;;;;;;;24.38;10.35;;;;;;;7.26;67.75;100060.16;5069533;28;20028;-79
2020/12/22 10:43:01;;;;;;;27.60;11.90;;;;;;;7.21;67.27;100050.19;5067411;28;20028;-73
2020/12/22 10:45:27;;;;;;;25.20;11.10;;;;;;;7.14;67.43;100042.34;5071069;28;20021;-71
2020/12/22 10:47:53;;;;;;;19.35;8.55;;;;;;;7.16;66.21;100053.53;5071735;28;20028;-71
2020/12/22 10:50:18;;;;;;;24.40;10.45;;;;;;;7.17;67.48;100055.16;5081876;28;20035;-71
2020/12/22 10:52:44;;;;;;;20.17;8.93;;;;;;;7.12;66.86;100043.59;5083266;28;20422;-72
2020/12/22 10:55:09;;;;;;;24.70;10.07;;;;;;;7.14;67.06;100039.69;5071727;28;20078;-71
2020/12/22 10:57:34;;;;;;;26.70;9.32;;;;;;;7.19;67.14;100044.31;5069959;28;20654;-72
2020/12/22 11:00:02;;;;;;;20.25;8.70;;;;;;;7.24;67.05;100040.94;5071424;28;20016;-75
2020/12/22 11:02:29;;;;;;;17.23;7.23;;;;;;;7.25;66.21;100039.91;5071188;28;20498;-74
2020/12/22 11:04:55;;;;;;;18.55;8.10;;;;;;;7.24;65.96;100038.28;5069981;28;21041;-74
2020/12/22 11:07:27;;;;;;;21.65;9.48;;;;;;;7.23;65.69;100029.50;5067358;28;20095;-74
2020/12/22 11:09:54;;;;;;;20.30;8.70;;;;;;;7.29;65.77;100043.75;5071789;28;20028;-75
2020/12/22 11:12:19;;;;;;;24.42;9.30;;;;;;;7.28;65.91;100036.81;5085771;28;20055;-75
2020/12/22 11:14:44;;;;;;;21.58;8.90;;;;;;;7.28;66.58;100042.94;5088769;28;20111;-75
2020/12/22 11:17:10;;;;;;;24.80;9.85;;;;;;;7.26;66.01;100046.84;5092581;28;20055;-74
2020/12/22 11:19:36;;;;;;;26.80;10.80;;;;;;;7.22;66.23;100041.97;5088409;28;20058;-73
2020/12/22 11:22:01;;;;;;;25.65;12.02;;;;;;;7.19;66.54;100031.03;5070178;28;20035;-79